Makita — V2ET2 — position and weather

sailwx.info

Track history (hours):
 
Tides and Currents Weather Stations Pressure Air Temp Water Temp Dewpoint Dewpoint Depression Visibility Wind Speed Wind Dir Waves Ship Positions

Makita

Last reported at 2014-Sep-29 10:33 UTC. Time now 2014-Oct-02 12:26 UTC.
Position N 01°13' E 103°29'.

Length 260 m; draft 11 m.

Type: Cargo ship. MMSI: 305543000.

Date/timePositionNaut miles runAvg speedWind from/ knotsBaromVisibWave heightAir tempDewpointWater temp
2014-Sep-29 10:33N 01°13' E 103°29'1110.5
2014-Sep-29 09:33N 01°12' E 103°40'8 7.7
2014-Sep-29 08:33N 01°17' E 103°46'0 0.0
2014-Sep-29 07:31N 01°17' E 103°46'0 0.0
2014-Sep-29 06:31N 01°17' E 103°46'0 0.0
2014-Sep-29 05:31N 01°17' E 103°46'0 0.0
2014-Sep-29 04:31N 01°17' E 103°46'0 0.0
2014-Sep-29 03:31N 01°17' E 103°46'0 0.0
2014-Sep-29 02:31N 01°17' E 103°46'0 0.0
2014-Sep-29 01:31N 01°17' E 103°46'0 0.0
2014-Sep-29 00:31N 01°17' E 103°46'0 0.0
2014-Sep-28 23:31N 01°17' E 103°46'0 0.0
2014-Sep-28 22:31N 01°17' E 103°46'0 0.0
2014-Sep-28 21:31N 01°17' E 103°46'0 0.0
2014-Sep-28 20:31N 01°17' E 103°46'0 0.0
2014-Sep-28 19:31N 01°17' E 103°46'0 0.0
2014-Sep-28 18:31N 01°17' E 103°46'1 1.3
2014-Sep-28 17:33N 01°17' E 103°45'1110.7
2014-Sep-28 16:33N 01°14' E 103°55'1010.0
2014-Sep-28 15:33N 01°16' E 104°05'  
2014-Sep-24 04:32N 22°20' E 114°07'0 0.1
2014-Sep-24 02:19N 22°19' E 114°07'0 0.0
2014-Sep-23 21:26N 22°19' E 114°07'2 0.1
2014-Sep-22 17:33N 22°18' E 114°06'1312.7
2014-Sep-22 16:33N 22°24' E 113°53'4 2.9
2014-Sep-22 15:19N 22°27' E 113°54'0 0.0
2014-Sep-22 14:31N 22°27' E 113°54'0 0.0
2014-Sep-22 13:07N 22°27' E 113°54'0 0.0
2014-Sep-22 12:25N 22°27' E 113°54'0 0.0
2014-Sep-22 11:31N 22°27' E 113°54'0 0.0
2014-Sep-22 10:31N 22°27' E 113°54'0 0.0
2014-Sep-22 09:31N 22°27' E 113°54'0 0.0
2014-Sep-22 08:31N 22°27' E 113°54'0 0.0
2014-Sep-22 07:31N 22°27' E 113°54'0 0.0
2014-Sep-22 06:31N 22°27' E 113°54'0 0.0
2014-Sep-22 05:31N 22°27' E 113°54'0 0.0
2014-Sep-22 04:31N 22°27' E 113°54'0 0.0
2014-Sep-22 03:31N 22°27' E 113°54'0 0.0
2014-Sep-22 02:33N 22°27' E 113°54'7 6.3
2014-Sep-22 01:26N 22°21' E 113°57'11 9.5
2014-Sep-22 00:17N 22°15' E 114°07'163 9.2
2014-Sep-21 06:31N 22°56' E 116°58'4413.8
2014-Sep-21 03:21N 23°24' E 117°35'1214.4
2014-Sep-21 02:33N 23°31' E 117°45'1716.9
2014-Sep-21 01:33N 23°42' E 117°59'1414.5
2014-Sep-21 00:33N 23°50' E 118°12'1414.4
2014-Sep-20 23:33N 23°58' E 118°25'3215.1
2014-Sep-20 21:24N 24°18' E 118°53'1914.9
2014-Sep-20 20:10N 24°29' E 119°09'34413.9
2014-Sep-19 19:27N 29°24' E 122°29'1312.8
2014-Sep-19 18:26N 29°36' E 122°27'1214.0
2014-Sep-19 17:33N 29°46' E 122°18'1312.7
2014-Sep-19 16:33N 29°55' E 122°08'5 3.6
2014-Sep-19 15:16N 29°53' E 122°03'0 0.0
2014-Sep-19 14:28N 29°53' E 122°03'0 0.0
2014-Sep-19 12:22N 29°53' E 122°03'0 0.0
2014-Sep-19 11:22N 29°53' E 122°03'  
Track history (hours):
 
Tides and Currents Weather Stations Pressure Air Temp Water Temp Dewpoint Dewpoint Depression Visibility Wind Speed Wind Dir Waves Ship Positions

Makita

Last reported at 2014-Sep-29 10:33 UTC. Time now 2014-Oct-02 12:26 UTC.
Position N 01°13' E 103°29'.

Length 260 m; draft 11 m.

Type: Cargo ship. MMSI: 305543000.

Date/timePositionNaut miles runAvg speedWind from/ knotsBaromVisibWave heightAir tempDewpointWater temp
2014-Sep-29 10:33N 01°13' E 103°29'1110.5
2014-Sep-29 09:33N 01°12' E 103°40'8 7.7
2014-Sep-29 08:33N 01°17' E 103°46'0 0.0
2014-Sep-29 07:31N 01°17' E 103°46'0 0.0
2014-Sep-29 06:31N 01°17' E 103°46'0 0.0
2014-Sep-29 05:31N 01°17' E 103°46'0 0.0
2014-Sep-29 04:31N 01°17' E 103°46'0 0.0
2014-Sep-29 03:31N 01°17' E 103°46'0 0.0
2014-Sep-29 02:31N 01°17' E 103°46'0 0.0
2014-Sep-29 01:31N 01°17' E 103°46'0 0.0
2014-Sep-29 00:31N 01°17' E 103°46'0 0.0
2014-Sep-28 23:31N 01°17' E 103°46'0 0.0
2014-Sep-28 22:31N 01°17' E 103°46'0 0.0
2014-Sep-28 21:31N 01°17' E 103°46'0 0.0
2014-Sep-28 20:31N 01°17' E 103°46'0 0.0
2014-Sep-28 19:31N 01°17' E 103°46'0 0.0
2014-Sep-28 18:31N 01°17' E 103°46'1 1.3
2014-Sep-28 17:33N 01°17' E 103°45'1110.7
2014-Sep-28 16:33N 01°14' E 103°55'1010.0
2014-Sep-28 15:33N 01°16' E 104°05'  
2014-Sep-24 04:32N 22°20' E 114°07'0 0.1
2014-Sep-24 02:19N 22°19' E 114°07'0 0.0
2014-Sep-23 21:26N 22°19' E 114°07'2 0.1
2014-Sep-22 17:33N 22°18' E 114°06'1312.7
2014-Sep-22 16:33N 22°24' E 113°53'4 2.9
2014-Sep-22 15:19N 22°27' E 113°54'0 0.0
2014-Sep-22 14:31N 22°27' E 113°54'0 0.0
2014-Sep-22 13:07N 22°27' E 113°54'0 0.0
2014-Sep-22 12:25N 22°27' E 113°54'0 0.0
2014-Sep-22 11:31N 22°27' E 113°54'0 0.0
2014-Sep-22 10:31N 22°27' E 113°54'0 0.0
2014-Sep-22 09:31N 22°27' E 113°54'0 0.0
2014-Sep-22 08:31N 22°27' E 113°54'0 0.0
2014-Sep-22 07:31N 22°27' E 113°54'0 0.0
2014-Sep-22 06:31N 22°27' E 113°54'0 0.0
2014-Sep-22 05:31N 22°27' E 113°54'0 0.0
2014-Sep-22 04:31N 22°27' E 113°54'0 0.0
2014-Sep-22 03:31N 22°27' E 113°54'0 0.0
2014-Sep-22 02:33N 22°27' E 113°54'7 6.3
2014-Sep-22 01:26N 22°21' E 113°57'11 9.5
2014-Sep-22 00:17N 22°15' E 114°07'163 9.2
2014-Sep-21 06:31N 22°56' E 116°58'4413.8
2014-Sep-21 03:21N 23°24' E 117°35'1214.4
2014-Sep-21 02:33N 23°31' E 117°45'1716.9
2014-Sep-21 01:33N 23°42' E 117°59'1414.5
2014-Sep-21 00:33N 23°50' E 118°12'1414.4
2014-Sep-20 23:33N 23°58' E 118°25'3215.1
2014-Sep-20 21:24N 24°18' E 118°53'1914.9
2014-Sep-20 20:10N 24°29' E 119°09'34413.9
2014-Sep-19 19:27N 29°24' E 122°29'1312.8
2014-Sep-19 18:26N 29°36' E 122°27'1214.0
2014-Sep-19 17:33N 29°46' E 122°18'1312.7
2014-Sep-19 16:33N 29°55' E 122°08'5 3.6
2014-Sep-19 15:16N 29°53' E 122°03'0 0.0
2014-Sep-19 14:28N 29°53' E 122°03'0 0.0
2014-Sep-19 12:22N 29°53' E 122°03'0 0.0
2014-Sep-19 11:22N 29°53' E 122°03'  

Dump ship's entire track history